Nashua, NH

8:38 PM EDT on October 24, 2014 (GMT -0400)
Fitchburg Municipal | Change Station
CLOSE
Current Station
Airport
Location: Fitchburg,
Elevation: 348 ft
Nearby Weather Stations

Elev 348 ft 42.55 °N, 71.76 °W | Updated 46 minutes ago

Overcast
Overcast
50 °F
Feels Like 50 °F
N
7
Wind Variable Wind from NW

Today
High -- | Low -- °F
--% Chance of Precip.
Yesterday
High -- | Low -- °F
Precip. -- in
7:09 AM 5:49 PM
New Moon, 1% visible
Pressure 29.76 in
Visibility 10.0 miles
Clouds Overcast 2400 ft
Dew Point 41 °F
Humidity 71%
Rainfall 0.07 in
Snow Depth Not available.
UV 0 out of 12
Pollen .10 out of 12
Air Quality Not available.
Flu Activity Sporadic
METAR KFIT 242352Z AUTO 31006KT 10SM OVC024 10/05 A2975 RMK AO2 SLP077 T01000050 10117 20100 51009

More Conditions Fewer Conditions

Pressure 29.76 in
Visibility 10.0 miles
Clouds Overcast 2400 ft
Dew Point 41 °F
Humidity 71%
Rainfall 0.07 in
Snow Depth Not available.
UV 0 out of 12
Pollen .10 out of 12
Air Quality Not available.
Flu Activity Sporadic
METAR KFIT 242352Z AUTO 31006KT 10SM OVC024 10/05 A2975 RMK AO2 SLP077 T01000050 10117 20100 51009

More Conditions Fewer Conditions

10-Day Weather Forecast

Almanac

Astronomy

Oct. 24, 2014 Rise Set
Actual Time 7:09 AM EDT 5:49 PM EDT
Civil Twilight 6:41 AM EDT 6:18 PM EDT
Nautical Twilight 6:07 AM EDT 6:51 PM EDT
Astronomical Twilight 5:35 AM EDT 7:24 PM EDT
Moon 7:46 AM EDT (10/24) 6:26 PM EDT (10/24)
Length of Visible Light 11h 37m
Length of Day
10h 39m
Tomorrow will be 2m 41s shorter.
New Moon, 1% of the Moon is Illuminated
Today
New Moon
Oct 30
First Quarter
Nov 6
Full
Nov 14
Last Quarter
Nov 22
New

Today's Extremes

State Highs State Lows

Community

WunderPhotos

Upload Photos

1,764,727 photos uploaded!

WunderBlogs® & News

Nearby

Air Quality

  Air Quality AQ Index Pollutant
Friday Good
PM2.5
Friday Good
OZONE
Saturday Good
PM2.5
Saturday Good
OZONE
Sunday Good
PM2.5
Sunday Good
OZONE
Monday Good
PM2.5
Monday Good
OZONE

Snow Depth

Station Depth Elevation
No new snow has been reported.

Earthquake Activity

City Distance Mag. Time & Date
No recent earthquake activity has been reported nearby.
Minimum magnitude displayed is 2.5.

Coastal Water Temperatures

Place Temperature
No Stations Reporting

Nearby Weather Stations